Time;durP1;ratioP1;P1;durP2;ratioP2;P2;SDS_P1;SDS_P2;PMS_P1;PMS_P2;Temp;Humidity;BMP_temperature;BMP_pressure;BME280_temperature;BME280_humidity;BME280_pressure;Samples;Min_cycle;Max_cycle;Signal;HPM_P1;HPM_P2
2024/04/10 00:13:03;;;;;;;9.00;2.85;;;;;;;18.82;49.34;100590.13;34009236;26;19999;-75
2024/04/10 00:28:05;;;;;;;5.03;2.70;;;;;;;18.58;51.07;100568.00;33984642;26;20462;-76
2024/04/10 00:43:12;;;;;;;5.60;2.80;;;;;;;18.63;52.15;100594.16;34037241;26;20010;-77
2024/04/10 00:58:14;;;;;;;5.43;3.38;;;;;;;18.83;51.48;100604.66;33960188;26;20006;-77
2024/04/10 01:13:18;;;;;;;11.35;3.33;;;;;;;18.87;52.69;100602.50;33974077;26;20010;-76
2024/04/10 01:28:20;;;;;;;7.27;3.47;;;;;;;18.65;52.58;100606.22;34005584;26;19994;-75
2024/04/10 01:43:23;;;;;;;9.35;3.25;;;;;;;18.47;53.63;100614.44;33997443;26;20002;-74
2024/04/10 01:58:25;;;;;;;6.63;3.83;;;;;;;18.56;55.40;100619.19;34003004;26;20057;-75
2024/04/10 02:13:28;;;;;;;6.60;3.65;;;;;;;18.63;56.62;100627.91;33944351;26;20002;-75
2024/04/10 02:28:30;;;;;;;8.10;3.77;;;;;;;18.65;57.52;100646.72;33955264;26;20006;-76
2024/04/10 02:43:32;;;;;;;8.82;3.63;;;;;;;18.31;58.88;100645.00;33950855;26;20007;-75
2024/04/10 02:58:35;;;;;;;6.90;3.65;;;;;;;18.37;57.77;100656.94;34024551;26;20083;-75
2024/04/10 03:13:40;;;;;;;20.17;7.57;;;;;;;18.18;57.15;100658.16;33985071;26;20007;-76
2024/04/10 03:28:43;;;;;;;11.52;5.70;;;;;;;18.25;57.48;100666.84;33982179;26;20086;-75
2024/04/10 03:43:45;;;;;;;16.02;6.93;;;;;;;18.42;56.41;100678.31;34003386;26;20017;-76
2024/04/10 03:58:51;;;;;;;20.00;7.60;;;;;;;18.71;56.42;100673.09;33959338;26;20011;-77
2024/04/10 04:13:54;;;;;;;70.70;22.60;;;;;;;19.60;53.22;100665.53;33968142;26;20346;-77
2024/04/10 04:28:56;;;;;;;85.82;24.67;;;;;;;20.41;51.18;100674.50;33912089;26;20013;-76
2024/04/10 04:43:58;;;;;;;47.58;12.43;;;;;;;20.92;51.78;100690.00;34004360;26;20082;-76
2024/04/10 04:59:01;;;;;;;11.10;5.90;;;;;;;21.04;55.66;100697.22;34030706;26;20339;-75
2024/04/10 05:14:05;;;;;;;12.38;5.45;;;;;;;20.76;58.74;100700.25;33997905;26;20007;-76
2024/04/10 05:29:07;;;;;;;18.07;4.87;;;;;;;21.76;58.51;100692.84;33989032;26;20014;-76
2024/04/10 05:44:10;;;;;;;14.98;5.05;;;;;;;22.71;53.73;100694.00;34009154;26;20043;-79
2024/04/10 05:59:12;;;;;;;21.10;7.47;;;;;;;23.82;48.82;100693.44;34011888;26;20025;-80
2024/04/10 06:14:14;;;;;;;12.50;4.93;;;;;;;25.14;45.66;100704.69;33967142;26;20353;-79
2024/04/10 06:29:18;;;;;;;22.40;5.57;;;;;;;26.09;43.22;100702.53;34056467;26;20412;-80
2024/04/10 06:44:20;;;;;;;13.07;4.55;;;;;;;27.08;41.19;100694.16;33990213;26;20002;-80
2024/04/10 06:59:22;;;;;;;5.83;3.37;;;;;;;28.24;37.93;100684.38;33993066;26;20453;-80
2024/04/10 07:14:27;;;;;;;5.25;3.30;;;;;;;28.93;35.32;100686.44;33965784;26;20028;-80
2024/04/10 07:29:30;;;;;;;7.45;3.35;;;;;;;29.28;33.79;100690.94;34090997;25;20390;-81
2024/04/10 07:44:32;;;;;;;8.73;3.70;;;;;;;29.11;33.58;100675.19;34048559;26;20075;-79
2024/04/10 07:59:35;;;;;;;13.73;5.22;;;;;;;30.56;32.34;100660.41;33944233;26;20469;-84
2024/04/10 08:14:37;;;;;;;19.73;7.32;;;;;;;31.04;32.30;100658.25;33950811;26;20009;-80
2024/04/10 08:29:40;;;;;;;21.35;7.43;;;;;;;32.12;30.70;100647.91;33954259;26;20074;-85
2024/04/10 08:44:42;;;;;;;58.63;17.20;;;;;;;32.01;30.94;100634.19;33994713;26;20010;-78
2024/04/10 08:59:44;;;;;;;33.50;11.02;;;;;;;32.39;30.20;100625.88;34002058;26;20026;-77
2024/04/10 09:14:47;;;;;;;22.23;8.40;;;;;;;32.57;30.32;100603.63;33978199;26;20013;-80
2024/04/10 09:29:58;;;;;;;11.90;4.97;;;;;;;33.14;29.34;100604.75;34006107;26;20083;-82
2024/04/10 09:45:06;;;;;;;12.75;5.68;;;;;;;33.34;29.83;100600.25;33995055;26;19999;-82
2024/04/10 10:00:11;;;;;;;11.27;4.82;;;;;;;33.60;29.56;100595.47;33951516;26;20003;-83
2024/04/10 10:15:21;;;;;;;7.63;4.90;;;;;;;34.17;28.81;100592.81;33984263;26;20006;-79
2024/04/10 10:30:24;;;;;;;8.93;5.30;;;;;;;34.25;28.39;100598.41;34083797;26;20457;-81
2024/04/10 10:45:26;;;;;;;7.00;4.47;;;;;;;34.45;28.29;100594.53;34065912;26;20028;-76
2024/04/10 11:00:33;;;;;;;16.23;5.05;;;;;;;34.94;27.85;100584.56;34003864;26;20002;-82
2024/04/10 11:15:45;;;;;;;12.20;5.90;;;;;;;35.11;27.16;100571.22;34044268;26;20009;-80
2024/04/10 11:30:48;;;;;;;6.28;4.93;;;;;;;35.48;26.77;100562.94;34073064;26;20013;-85
2024/04/10 11:45:50;;;;;;;6.05;4.40;;;;;;;34.88;27.27;100546.06;33991256;26;20006;-81
2024/04/10 12:00:52;;;;;;;17.20;6.40;;;;;;;32.66;28.78;100533.56;34034397;26;20014;-81
2024/04/10 12:15:55;;;;;;;12.77;5.07;;;;;;;31.34;29.99;100534.34;33977144;26;20002;-80
2024/04/10 12:30:58;;;;;;;13.75;4.97;;;;;;;30.64;30.90;100531.63;34027234;26;20338;-81
2024/04/10 12:46:00;;;;;;;9.27;6.43;;;;;;;30.44;30.86;100525.47;33987727;26;20089;-79
2024/04/10 13:01:07;;;;;;;15.43;7.40;;;;;;;30.29;30.84;100508.50;33965263;25;20008;-82
2024/04/10 13:17:29;;;;;;;12.32;6.35;;;;;;;30.04;31.07;100508.09;33856662;26;21232;-80
2024/04/10 13:32:37;;;;;;;8.02;5.50;;;;;;;29.84;31.08;100503.19;33637311;26;20004;-78
2024/04/10 13:47:40;;;;;;;7.90;5.30;;;;;;;29.70;30.87;100513.69;33649419;26;20138;-76
2024/04/10 14:02:43;;;;;;;18.42;7.00;;;;;;;29.61;31.13;100513.38;33652812;26;20391;-78
2024/04/10 14:17:46;;;;;;;9.63;6.88;;;;;;;29.34;31.00;100518.97;33601822;26;20787;-79
2024/04/10 14:32:48;;;;;;;10.30;6.03;;;;;;;29.10;31.30;100516.41;33569427;26;20437;-77
2024/04/10 14:47:50;;;;;;;11.18;6.25;;;;;;;28.97;31.51;100519.22;33540162;26;20015;-79
2024/04/10 15:02:56;;;;;;;9.32;6.18;;;;;;;28.79;31.84;100521.53;33554168;26;20335;-79
2024/04/10 15:17:58;;;;;;;8.25;6.15;;;;;;;28.63;31.95;100528.16;33559164;26;20012;-81
2024/04/10 15:33:01;;;;;;;9.88;6.90;;;;;;;28.45;32.34;100548.53;33557202;26;20397;-82
2024/04/10 15:48:03;;;;;;;12.23;7.63;;;;;;;28.37;32.32;100558.78;33556818;26;20006;-81
2024/04/10 16:03:06;;;;;;;14.40;7.40;;;;;;;27.87;32.77;100574.22;33506374;26;20036;-78
2024/04/10 16:18:10;;;;;;;13.75;8.23;;;;;;;27.77;32.71;100581.44;33689652;26;20025;-80
2024/04/10 16:33:15;;;;;;;16.90;8.35;;;;;;;27.57;32.71;100595.88;33745854;26;20004;-80
2024/04/10 16:48:17;;;;;;;16.42;8.60;;;;;;;27.47;32.48;100604.56;33642216;26;20008;-80
2024/04/10 17:03:20;;;;;;;13.63;8.10;;;;;;;27.24;32.62;100628.38;33576916;26;20135;-82
2024/04/10 17:33:44;;;;;;;16.45;9.10;;;;;;;26.50;33.28;100657.31;33432692;26;20354;-79
2024/04/10 17:48:46;;;;;;;12.35;7.97;;;;;;;26.10;33.90;100667.88;33536548;26;20414;-78
2024/04/10 18:03:57;;;;;;;;;;;;;;;25.81;34.64;100674.81;33558417;26;20012;-78
2024/04/10 18:19:00;;;;;;;18.05;8.90;;;;;;;26.12;34.19;100679.25;33569025;26;20444;-78
2024/04/10 18:34:02;;;;;;;;;;;;;;;26.12;34.46;100687.59;33603625;26;20080;-78
2024/04/10 18:49:04;;;;;;;23.95;15.38;;;;;;;25.70;34.93;100696.34;33651460;26;20280;-76
2024/04/10 19:04:07;;;;;;;27.57;15.53;;;;;;;25.21;35.64;100711.78;33628009;26;20004;-79
2024/04/10 19:19:11;;;;;;;29.10;15.73;;;;;;;24.87;36.76;100722.06;33566666;26;20471;-79
2024/04/10 19:34:13;;;;;;;25.88;16.77;;;;;;;24.44;37.46;100730.53;33611186;26;20479;-77
2024/04/10 19:49:16;;;;;;;32.60;14.37;;;;;;;24.35;38.49;100761.25;33643598;26;20012;-79
2024/04/10 20:04:19;;;;;;;19.45;10.82;;;;;;;24.10;37.89;100763.63;33638405;26;20010;-77
2024/04/10 20:19:22;;;;;;;19.27;11.50;;;;;;;24.05;38.09;100783.81;33552547;26;20010;-77
2024/04/10 20:34:25;;;;;;;19.33;10.07;;;;;;;23.77;38.57;100791.94;33537070;26;20345;-74
2024/04/10 20:49:27;;;;;;;36.47;17.03;;;;;;;23.14;40.72;100807.75;33487782;26;20416;-76
2024/04/10 21:04:30;;;;;;;16.10;8.73;;;;;;;22.69;41.54;100807.19;33566792;26;20031;-76
2024/04/10 22:36:21;;;;;;;10.15;4.72;;;;;;;20.38;46.90;100841.66;33576223;26;20008;-76
2024/04/10 22:51:23;;;;;;;7.65;4.53;;;;;;;20.24;47.60;100858.09;33538605;26;20072;-74
2024/04/10 23:06:25;;;;;;;8.38;4.50;;;;;;;20.37;46.45;100872.44;33521539;26;20008;-76
2024/04/10 23:21:48;;;;;;;8.30;4.63;;;;;;;20.23;46.77;100856.56;33551763;26;20347;-74
2024/04/10 23:36:50;;;;;;;8.25;3.60;;;;;;;20.15;46.84;100863.63;33549294;26;20012;-75
2024/04/10 23:51:53;;;;;;;7.22;3.30;;;;;;;20.02;47.55;100864.63;33562738;26;20347;-76
